PDT,Max TemperatureF,Mean TemperatureF,Min TemperatureF,Max Dew PointF,MeanDew PointF,Min DewpointF,Max Humidity, Mean Humidity, Min Humidity, Max Sea Level PressureIn, Mean Sea Level PressureIn, Min Sea Level PressureIn, Max VisibilityMiles, Mean VisibilityMiles, Min VisibilityMiles, Max Wind SpeedMPH, Mean Wind SpeedMPH, Max Gust SpeedMPH,PrecipitationIn, CloudCover, Events, WindDirDegrees
2012-10-1,98,78,57,58,54,49,90,54,17,30.01,29.93,29.85,10,8,4,8,2,10,0.00,1,,326
2012-10-2,99,79,59,58,54,44,84,50,16,29.91,29.85,29.77,10,7,3,8,2,13,0.00,2,,359
2012-10-3,100,80,59,57,50,37,84,48,12,29.93,29.85,29.80,10,7,3,9,3,13,0.00,2,,123
2012-10-4,90,73,56,53,50,46,72,47,21,30.06,30.01,29.94,10,9,8,15,5,20,0.00,1,,316
2012-10-5,82,68,53,56,51,47,72,54,36,30.15,30.08,30.01,10,10,7,13,5,16,0.00,0,,322
2012-10-6,82,70,58,54,52,51,80,58,36,30.06,30.00,29.91,10,10,10,13,7,,0.00,0,,319
2012-10-7,82,69,56,53,50,49,77,56,34,30.01,29.94,29.88,10,10,10,12,5,14,0.00,0,,315
2012-10-8,79,67,55,53,49,46,77,56,35,30.02,29.98,29.94,10,10,6,14,8,17,0.00,0,,317
2012-10-9,79,67,54,49,47,43,77,54,31,30.03,29.96,29.90,10,10,7,15,5,18,0.00,1,,313
2012-10-10,76,62,47,50,46,44,83,58,33,29.97,29.91,29.86,10,9,6,10,4,15,0.00,0,,271
2012-10-11,71,63,54,53,49,46,86,67,48,29.96,29.90,29.86,10,10,8,16,5,21,0.02,2,,198
2012-10-12,66,61,55,53,51,47,93,75,56,30.22,30.12,29.98,10,7,5,9,3,13,T,6,Rain,324
2012-10-13,74,60,46,51,48,43,93,69,44,30.31,30.24,30.17,10,6,0,9,3,15,0.00,0,Fog,332
2012-10-14,80,63,45,55,49,43,93,66,39,30.23,30.16,30.06,10,5,0,8,2,12,0.00,0,Fog,155
2012-10-15,82,66,49,55,51,47,93,65,36,30.09,30.03,29.94,10,5,1,9,2,13,0.00,0,,280
2012-10-16,86,69,52,59,55,49,93,65,37,29.99,29.92,29.83,10,6,2,10,3,14,0.00,0,,63
2012-10-17,86,70,53,60,56,51,93,67,40,29.93,29.88,29.82,10,6,2,9,2,10,0.00,0,,324
2012-10-18,96,75,53,58,53,44,93,56,19,29.99,29.94,29.90,10,7,2,15,3,18,0.00,0,,321
2012-10-19,84,70,56,59,56,53,87,61,34,30.05,29.96,29.88,10,8,4,15,4,20,0.00,0,,319
2012-10-20,84,69,53,57,54,49,93,65,37,29.89,29.82,29.74,10,8,2,15,5,21,0.00,0,,328
2012-10-21,76,61,46,50,43,37,86,57,27,29.92,29.85,29.80,10,10,7,14,4,18,0.00,0,,321
2012-10-22,62,58,53,53,47,40,78,65,51,30.00,29.92,29.84,10,9,4,13,1,17,0.12,7,Rain,25
2012-10-23,68,54,40,49,43,39,100,69,37,30.07,30.02,29.97,10,5,0,14,5,17,0.00,1,Fog,342
2012-10-24,69,55,41,44,41,39,89,61,33,30.20,30.13,30.04,10,10,7,17,5,20,0.00,0,,332
2012-10-25,72,59,45,50,45,42,92,65,38,30.25,30.20,30.14,10,10,8,14,5,17,0.00,2,,321
2012-10-26,71,57,43,47,43,40,80,59,37,30.25,30.17,30.10,10,9,5,13,3,,0.00,0,,315
2012-10-27,76,58,40,48,45,39,100,68,36,30.10,30.05,29.96,9,6,3,8,1,13,0.00,0,,14
2012-10-28,81,62,42,49,45,40,93,62,30,30.04,30.00,29.94,9,6,2,6,1,9,0.00,0,,96
2012-10-29,84,64,44,52,47,41,93,61,28,30.12,30.05,30.01,8,6,2,7,1,9,0.00,0,,52
2012-10-30,85,65,45,53,48,42,93,58,23,30.09,30.01,29.95,8,6,3,7,1,13,0.00,0,,120
2012-10-31,81,62,43,54,48,39,92,59,26,30.03,29.98,29.93,10,6,1,8,1,10,0.00,0,,315